sensor_id;sensor_type;location;lat;lon;timestamp;pressure;altitude;pressure_sealevel;temperature
37452;BMP280;23314;51.114;6.900;2023-07-31T04:02:33;100783.38;;;17.82
37452;BMP280;23314;51.114;6.900;2023-07-31T04:04:58;100783.03;;;17.99
37452;BMP280;23314;51.114;6.900;2023-07-31T04:07:24;100782.66;;;18.15
37452;BMP280;23314;51.114;6.900;2023-07-31T04:09:49;100779.13;;;18.33
37452;BMP280;23314;51.114;6.900;2023-07-31T04:12:14;100777.72;;;18.47
37452;BMP280;23314;51.114;6.900;2023-07-31T04:14:40;100773.56;;;18.61
37452;BMP280;23314;51.114;6.900;2023-07-31T04:17:05;100777.72;;;18.71
37452;BMP280;23314;51.114;6.900;2023-07-31T04:19:30;100779.88;;;18.82
37452;BMP280;23314;51.114;6.900;2023-07-31T04:21:56;100777.84;;;18.92
37452;BMP280;23314;51.114;6.900;2023-07-31T04:24:21;100770.88;;;19.00
37452;BMP280;23314;51.114;6.900;2023-07-31T04:26:53;100765.13;;;19.07
37452;BMP280;23314;51.114;6.900;2023-07-31T04:29:18;100764.00;;;19.14
37452;BMP280;23314;51.114;6.900;2023-07-31T04:31:43;100765.59;;;19.21
37452;BMP280;23314;51.114;6.900;2023-07-31T04:34:09;100764.94;;;19.26
37452;BMP280;23314;51.114;6.900;2023-07-31T04:36:35;100762.34;;;19.32
37452;BMP280;23314;51.114;6.900;2023-07-31T04:39:00;100764.09;;;19.35
37452;BMP280;23314;51.114;6.900;2023-07-31T04:41:26;100766.91;;;19.40
37452;BMP280;23314;51.114;6.900;2023-07-31T04:43:51;100748.53;;;19.45
37452;BMP280;23314;51.114;6.900;2023-07-31T04:46:17;100746.84;;;19.47
37452;BMP280;23314;51.114;6.900;2023-07-31T04:48:42;100761.22;;;19.53
37452;BMP280;23314;51.114;6.900;2023-07-31T04:51:08;100760.28;;;19.56
37452;BMP280;23314;51.114;6.900;2023-07-31T04:53:34;100758.09;;;19.60
37452;BMP280;23314;51.114;6.900;2023-07-31T04:55:59;100753.84;;;19.69
37452;BMP280;23314;51.114;6.900;2023-07-31T04:58:25;100750.75;;;19.76
37452;BMP280;23314;51.114;6.900;2023-07-31T05:00:50;100749.13;;;19.84
37452;BMP280;23314;51.114;6.900;2023-07-31T05:03:15;100740.41;;;19.95
37452;BMP280;23314;51.114;6.900;2023-07-31T05:05:41;100734.41;;;20.06
37452;BMP280;23314;51.114;6.900;2023-07-31T05:08:06;100737.53;;;20.19
37452;BMP280;23314;51.114;6.900;2023-07-31T05:10:31;100731.78;;;20.32
37452;BMP280;23314;51.114;6.900;2023-07-31T05:12:57;100728.47;;;20.43
37452;BMP280;23314;51.114;6.900;2023-07-31T05:15:22;100726.09;;;20.51
37452;BMP280;23314;51.114;6.900;2023-07-31T05:17:48;100723.91;;;20.55
37452;BMP280;23314;51.114;6.900;2023-07-31T05:20:13;100726.13;;;20.56
37452;BMP280;23314;51.114;6.900;2023-07-31T05:22:40;100722.22;;;20.57
37452;BMP280;23314;51.114;6.900;2023-07-31T05:25:06;100709.97;;;20.62
37452;BMP280;23314;51.114;6.900;2023-07-31T05:27:32;100707.50;;;20.64
37452;BMP280;23314;51.114;6.900;2023-07-31T05:29:57;100711.94;;;20.67
37452;BMP280;23314;51.114;6.900;2023-07-31T05:32:22;100706.81;;;20.69
37452;BMP280;23314;51.114;6.900;2023-07-31T05:34:51;100704.19;;;20.75
37452;BMP280;23314;51.114;6.900;2023-07-31T05:37:17;100698.03;;;20.80
37452;BMP280;23314;51.114;6.900;2023-07-31T05:39:42;100692.16;;;20.81
37452;BMP280;23314;51.114;6.900;2023-07-31T05:42:08;100692.44;;;20.84
37452;BMP280;23314;51.114;6.900;2023-07-31T05:44:33;100684.75;;;20.82
37452;BMP280;23314;51.114;6.900;2023-07-31T05:46:58;100671.69;;;20.80
37452;BMP280;23314;51.114;6.900;2023-07-31T05:49:24;100683.47;;;20.77
37452;BMP280;23314;51.114;6.900;2023-07-31T05:51:49;100676.78;;;20.73
37452;BMP280;23314;51.114;6.900;2023-07-31T05:54:14;100675.97;;;20.67
37452;BMP280;23314;51.114;6.900;2023-07-31T05:56:40;100677.63;;;20.58
37452;BMP280;23314;51.114;6.900;2023-07-31T05:59:05;100674.59;;;20.51
37452;BMP280;23314;51.114;6.900;2023-07-31T06:01:30;100675.09;;;20.49
37452;BMP280;23314;51.114;6.900;2023-07-31T06:03:56;100676.22;;;20.42
37452;BMP280;23314;51.114;6.900;2023-07-31T06:06:21;100674.75;;;20.41
37452;BMP280;23314;51.114;6.900;2023-07-31T06:08:46;100682.81;;;20.36
37452;BMP280;23314;51.114;6.900;2023-07-31T06:11:12;100685.47;;;20.30
37452;BMP280;23314;51.114;6.900;2023-07-31T06:13:37;100690.06;;;20.24
37452;BMP280;23314;51.114;6.900;2023-07-31T06:16:02;100682.44;;;20.22
37452;BMP280;23314;51.114;6.900;2023-07-31T06:18:31;100690.28;;;20.20
37452;BMP280;23314;51.114;6.900;2023-07-31T06:20:57;100680.66;;;20.19
37452;BMP280;23314;51.114;6.900;2023-07-31T06:23:22;100683.84;;;20.18
37452;BMP280;23314;51.114;6.900;2023-07-31T06:25:48;100688.22;;;20.15
37452;BMP280;23314;51.114;6.900;2023-07-31T06:28:13;100679.84;;;20.13
37452;BMP280;23314;51.114;6.900;2023-07-31T06:30:38;100673.88;;;20.09
37452;BMP280;23314;51.114;6.900;2023-07-31T06:33:03;100672.94;;;20.12
37452;BMP280;23314;51.114;6.900;2023-07-31T06:35:29;100675.72;;;20.18
37452;BMP280;23314;51.114;6.900;2023-07-31T06:37:54;100669.16;;;20.24
37452;BMP280;23314;51.114;6.900;2023-07-31T06:40:19;100676.13;;;20.31
37452;BMP280;23314;51.114;6.900;2023-07-31T06:42:45;100676.16;;;20.37
37452;BMP280;23314;51.114;6.900;2023-07-31T06:45:10;100669.34;;;20.41
37452;BMP280;23314;51.114;6.900;2023-07-31T06:47:35;100677.25;;;20.45
37452;BMP280;23314;51.114;6.900;2023-07-31T06:50:01;100680.53;;;20.49
37452;BMP280;23314;51.114;6.900;2023-07-31T06:52:26;100671.50;;;20.58
37452;BMP280;23314;51.114;6.900;2023-07-31T06:55:16;100668.59;;;20.67
37452;BMP280;23314;51.114;6.900;2023-07-31T06:57:45;100675.06;;;20.75
37452;BMP280;23314;51.114;6.900;2023-07-31T07:00:11;100672.41;;;20.81
37452;BMP280;23314;51.114;6.900;2023-07-31T07:02:36;100669.50;;;20.85
37452;BMP280;23314;51.114;6.900;2023-07-31T07:05:02;100678.16;;;20.89
37452;BMP280;23314;51.114;6.900;2023-07-31T07:07:27;100676.25;;;20.95
37452;BMP280;23314;51.114;6.900;2023-07-31T07:09:53;100674.06;;;20.99
37452;BMP280;23314;51.114;6.900;2023-07-31T07:12:18;100672.59;;;21.04
37452;BMP280;23314;51.114;6.900;2023-07-31T07:14:43;100667.66;;;21.02
37452;BMP280;23314;51.114;6.900;2023-07-31T07:17:11;100669.84;;;20.98
37452;BMP280;23314;51.114;6.900;2023-07-31T07:19:36;100667.13;;;20.92
37452;BMP280;23314;51.114;6.900;2023-07-31T07:22:01;100665.84;;;20.88
37452;BMP280;23314;51.114;6.900;2023-07-31T07:24:27;100661.38;;;20.85
37452;BMP280;23314;51.114;6.900;2023-07-31T07:26:52;100658.66;;;20.85
37452;BMP280;23314;51.114;6.900;2023-07-31T07:29:18;100657.88;;;20.84
37452;BMP280;23314;51.114;6.900;2023-07-31T07:31:43;100662.78;;;20.80
37452;BMP280;23314;51.114;6.900;2023-07-31T07:34:08;100657.34;;;20.74
37452;BMP280;23314;51.114;6.900;2023-07-31T07:36:34;100666.91;;;20.70
37452;BMP280;23314;51.114;6.900;2023-07-31T07:38:59;100671.06;;;20.65
37452;BMP280;23314;51.114;6.900;2023-07-31T07:41:24;100668.56;;;20.61
37452;BMP280;23314;51.114;6.900;2023-07-31T07:43:49;100667.72;;;20.55
37452;BMP280;23314;51.114;6.900;2023-07-31T07:46:16;100666.22;;;20.49
37452;BMP280;23314;51.114;6.900;2023-07-31T07:48:41;100656.03;;;20.43
37452;BMP280;23314;51.114;6.900;2023-07-31T07:51:07;100672.84;;;20.47
37452;BMP280;23314;51.114;6.900;2023-07-31T07:53:32;100660.31;;;20.50
37452;BMP280;23314;51.114;6.900;2023-07-31T07:55:57;100663.31;;;20.52
37452;BMP280;23314;51.114;6.900;2023-07-31T07:58:22;100662.78;;;20.54
37452;BMP280;23314;51.114;6.900;2023-07-31T08:00:51;100665.31;;;20.57
37452;BMP280;23314;51.114;6.900;2023-07-31T08:03:17;100667.06;;;20.60
37452;BMP280;23314;51.114;6.900;2023-07-31T08:05:43;100664.28;;;20.55
37452;BMP280;23314;51.114;6.900;2023-07-31T08:08:08;100659.84;;;20.52
37452;BMP280;23314;51.114;6.900;2023-07-31T08:10:34;100666.00;;;20.52
37452;BMP280;23314;51.114;6.900;2023-07-31T08:12:59;100661.81;;;20.51
37452;BMP280;23314;51.114;6.900;2023-07-31T08:15:25;100653.69;;;20.51
37452;BMP280;23314;51.114;6.900;2023-07-31T08:17:50;100649.53;;;20.56
37452;BMP280;23314;51.114;6.900;2023-07-31T08:20:15;100649.81;;;20.58
37452;BMP280;23314;51.114;6.900;2023-07-31T08:22:40;100641.72;;;20.63
37452;BMP280;23314;51.114;6.900;2023-07-31T08:25:06;100635.66;;;20.74
37452;BMP280;23314;51.114;6.900;2023-07-31T08:27:32;100640.09;;;20.77
37452;BMP280;23314;51.114;6.900;2023-07-31T08:29:57;100634.72;;;20.83
37452;BMP280;23314;51.114;6.900;2023-07-31T08:32:22;100634.31;;;20.90
37452;BMP280;23314;51.114;6.900;2023-07-31T08:34:48;100629.94;;;20.98
37452;BMP280;23314;51.114;6.900;2023-07-31T08:37:14;100624.31;;;21.08
37452;BMP280;23314;51.114;6.900;2023-07-31T08:39:39;100621.69;;;21.19
37452;BMP280;23314;51.114;6.900;2023-07-31T08:42:07;100615.59;;;21.30
37452;BMP280;23314;51.114;6.900;2023-07-31T08:44:34;100627.47;;;21.38
37452;BMP280;23314;51.114;6.900;2023-07-31T08:47:00;100619.63;;;21.46
37452;BMP280;23314;51.114;6.900;2023-07-31T08:49:25;100616.22;;;21.57
37452;BMP280;23314;51.114;6.900;2023-07-31T08:51:52;100609.13;;;21.71
37452;BMP280;23314;51.114;6.900;2023-07-31T08:54:17;100618.81;;;21.94
37452;BMP280;23314;51.114;6.900;2023-07-31T08:56:43;100615.19;;;22.20
37452;BMP280;23314;51.114;6.900;2023-07-31T08:59:10;100613.22;;;22.43
37452;BMP280;23314;51.114;6.900;2023-07-31T09:01:42;100615.97;;;22.60
37452;BMP280;23314;51.114;6.900;2023-07-31T09:04:09;100614.97;;;22.63
37452;BMP280;23314;51.114;6.900;2023-07-31T09:06:36;100612.47;;;22.60
37452;BMP280;23314;51.114;6.900;2023-07-31T09:09:02;100618.63;;;22.49
37452;BMP280;23314;51.114;6.900;2023-07-31T09:11:28;100619.66;;;22.40
37452;BMP280;23314;51.114;6.900;2023-07-31T09:13:57;100621.59;;;22.17
37452;BMP280;23314;51.114;6.900;2023-07-31T09:16:29;100628.69;;;21.97
37452;BMP280;23314;51.114;6.900;2023-07-31T09:18:57;100628.19;;;21.88
37452;BMP280;23314;51.114;6.900;2023-07-31T09:21:24;100622.44;;;21.68
37452;BMP280;23314;51.114;6.900;2023-07-31T09:23:50;100622.13;;;21.55
37452;BMP280;23314;51.114;6.900;2023-07-31T09:26:36;100619.38;;;21.49
37452;BMP280;23314;51.114;6.900;2023-07-31T09:29:05;100620.13;;;21.50
37452;BMP280;23314;51.114;6.900;2023-07-31T09:31:40;100611.50;;;21.57
37452;BMP280;23314;51.114;6.900;2023-07-31T09:34:09;100621.66;;;21.68
37452;BMP280;23314;51.114;6.900;2023-07-31T09:39:09;100598.59;;;22.07
37452;BMP280;23314;51.114;6.900;2023-07-31T09:41:45;100593.19;;;22.18
37452;BMP280;23314;51.114;6.900;2023-07-31T09:44:11;100589.72;;;22.29
37452;BMP280;23314;51.114;6.900;2023-07-31T09:46:37;100597.63;;;22.38
37452;BMP280;23314;51.114;6.900;2023-07-31T09:49:12;100593.19;;;22.46
37452;BMP280;23314;51.114;6.900;2023-07-31T09:51:38;100593.94;;;22.64
37452;BMP280;23314;51.114;6.900;2023-07-31T09:54:12;100593.19;;;22.74
37452;BMP280;23314;51.114;6.900;2023-07-31T09:56:48;100595.66;;;22.67
37452;BMP280;23314;51.114;6.900;2023-07-31T09:59:15;100582.56;;;22.60
37452;BMP280;23314;51.114;6.900;2023-07-31T10:01:42;100589.47;;;22.61
37452;BMP280;23314;51.114;6.900;2023-07-31T10:04:09;100588.50;;;22.75
37452;BMP280;23314;51.114;6.900;2023-07-31T10:06:35;100586.28;;;22.79
37452;BMP280;23314;51.114;6.900;2023-07-31T10:09:05;100570.44;;;22.83
37452;BMP280;23314;51.114;6.900;2023-07-31T10:11:35;100572.41;;;22.83
37452;BMP280;23314;51.114;6.900;2023-07-31T10:14:01;100577.09;;;22.77
37452;BMP280;23314;51.114;6.900;2023-07-31T10:16:27;100585.03;;;22.74
37452;BMP280;23314;51.114;6.900;2023-07-31T10:18:53;100581.81;;;22.76
37452;BMP280;23314;51.114;6.900;2023-07-31T10:21:19;100588.97;;;22.73
37452;BMP280;23314;51.114;6.900;2023-07-31T10:23:45;100591.19;;;22.69
37452;BMP280;23314;51.114;6.900;2023-07-31T10:26:13;100583.03;;;22.69
37452;BMP280;23314;51.114;6.900;2023-07-31T10:28:39;100583.81;;;22.70
37452;BMP280;23314;51.114;6.900;2023-07-31T10:31:05;100579.59;;;22.80
37452;BMP280;23314;51.114;6.900;2023-07-31T10:33:31;100576.88;;;22.80
37452;BMP280;23314;51.114;6.900;2023-07-31T10:36:19;100577.88;;;22.71
37452;BMP280;23314;51.114;6.900;2023-07-31T10:38:45;100568.72;;;22.80
37452;BMP280;23314;51.114;6.900;2023-07-31T10:41:11;100571.88;;;23.07
37452;BMP280;23314;51.114;6.900;2023-07-31T10:43:37;100574.91;;;23.51
37452;BMP280;23314;51.114;6.900;2023-07-31T10:46:11;100571.50;;;23.86
37452;BMP280;23314;51.114;6.900;2023-07-31T10:48:38;100575.25;;;24.13
37452;BMP280;23314;51.114;6.900;2023-07-31T10:51:10;100559.75;;;24.33
37452;BMP280;23314;51.114;6.900;2023-07-31T10:53:37;100567.63;;;24.37
37452;BMP280;23314;51.114;6.900;2023-07-31T10:56:05;100554.97;;;24.39
37452;BMP280;23314;51.114;6.900;2023-07-31T10:58:31;100568.66;;;24.33
37452;BMP280;23314;51.114;6.900;2023-07-31T11:00:59;100570.25;;;24.23
37452;BMP280;23314;51.114;6.900;2023-07-31T11:03:26;100564.97;;;24.01
37452;BMP280;23314;51.114;6.900;2023-07-31T11:06:01;100552.72;;;23.83
37452;BMP280;23314;51.114;6.900;2023-07-31T11:08:36;100555.72;;;23.73
37452;BMP280;23314;51.114;6.900;2023-07-31T11:11:08;100550.25;;;23.73
37452;BMP280;23314;51.114;6.900;2023-07-31T11:16:06;100556.13;;;23.89
37452;BMP280;23314;51.114;6.900;2023-07-31T11:18:31;100544.88;;;23.98
37452;BMP280;23314;51.114;6.900;2023-07-31T11:20:56;100550.97;;;24.15
37452;BMP280;23314;51.114;6.900;2023-07-31T11:23:22;100545.31;;;24.38
37452;BMP280;23314;51.114;6.900;2023-07-31T11:25:49;100555.53;;;24.57
37452;BMP280;23314;51.114;6.900;2023-07-31T11:28:16;100565.34;;;24.71
37452;BMP280;23314;51.114;6.900;2023-07-31T11:30:42;100567.03;;;24.74
37452;BMP280;23314;51.114;6.900;2023-07-31T11:33:10;100563.22;;;24.58
37452;BMP280;23314;51.114;6.900;2023-07-31T11:35:43;100564.13;;;24.42
37452;BMP280;23314;51.114;6.900;2023-07-31T11:38:29;100561.97;;;24.34
37452;BMP280;23314;51.114;6.900;2023-07-31T11:40:56;100552.22;;;24.45
37452;BMP280;23314;51.114;6.900;2023-07-31T11:43:23;100542.53;;;24.68
37452;BMP280;23314;51.114;6.900;2023-07-31T11:45:51;100537.97;;;24.77
37452;BMP280;23314;51.114;6.900;2023-07-31T11:48:23;100546.16;;;24.77
37452;BMP280;23314;51.114;6.900;2023-07-31T11:50:50;100533.00;;;24.56
37452;BMP280;23314;51.114;6.900;2023-07-31T11:53:20;100538.38;;;24.37
37452;BMP280;23314;51.114;6.900;2023-07-31T11:55:46;100540.44;;;24.31
37452;BMP280;23314;51.114;6.900;2023-07-31T11:58:13;100540.59;;;24.39
37452;BMP280;23314;51.114;6.900;2023-07-31T12:00:40;100536.50;;;24.51
37452;BMP280;23314;51.114;6.900;2023-07-31T12:03:06;100521.91;;;24.48
37452;BMP280;23314;51.114;6.900;2023-07-31T12:05:31;100529.41;;;24.42
37452;BMP280;23314;51.114;6.900;2023-07-31T12:07:57;100532.75;;;24.29
37452;BMP280;23314;51.114;6.900;2023-07-31T12:10:33;100527.97;;;24.11
37452;BMP280;23314;51.114;6.900;2023-07-31T12:13:01;100527.38;;;23.93
37452;BMP280;23314;51.114;6.900;2023-07-31T12:15:33;100529.44;;;23.82
37452;BMP280;23314;51.114;6.900;2023-07-31T12:17:58;100522.03;;;23.76
37452;BMP280;23314;51.114;6.900;2023-07-31T12:20:24;100529.47;;;23.76
37452;BMP280;23314;51.114;6.900;2023-07-31T12:22:49;100530.38;;;23.84
37452;BMP280;23314;51.114;6.900;2023-07-31T12:25:15;100528.81;;;23.94
37452;BMP280;23314;51.114;6.900;2023-07-31T12:27:44;100523.47;;;24.13
37452;BMP280;23314;51.114;6.900;2023-07-31T12:30:27;100522.88;;;24.26
37452;BMP280;23314;51.114;6.900;2023-07-31T12:32:52;100526.34;;;24.27
37452;BMP280;23314;51.114;6.900;2023-07-31T12:35:17;100509.44;;;24.34
37452;BMP280;23314;51.114;6.900;2023-07-31T12:37:43;100514.97;;;24.23
37452;BMP280;23314;51.114;6.900;2023-07-31T12:40:09;100518.47;;;24.17
37452;BMP280;23314;51.114;6.900;2023-07-31T12:42:34;100522.97;;;24.15
37452;BMP280;23314;51.114;6.900;2023-07-31T12:44:59;100517.16;;;24.30
37452;BMP280;23314;51.114;6.900;2023-07-31T12:47:25;100523.69;;;24.46
37452;BMP280;23314;51.114;6.900;2023-07-31T12:49:50;100518.72;;;24.44
37452;BMP280;23314;51.114;6.900;2023-07-31T12:52:15;100512.78;;;24.46
37452;BMP280;23314;51.114;6.900;2023-07-31T12:54:40;100509.75;;;24.49
37452;BMP280;23314;51.114;6.900;2023-07-31T12:57:06;100504.16;;;24.61
37452;BMP280;23314;51.114;6.900;2023-07-31T12:59:31;100503.28;;;24.77
37452;BMP280;23314;51.114;6.900;2023-07-31T13:01:56;100497.94;;;24.66
37452;BMP280;23314;51.114;6.900;2023-07-31T13:04:22;100492.47;;;24.66
37452;BMP280;23314;51.114;6.900;2023-07-31T13:06:47;100488.44;;;24.73
37452;BMP280;23314;51.114;6.900;2023-07-31T13:09:13;100485.78;;;24.86
37452;BMP280;23314;51.114;6.900;2023-07-31T13:11:38;100484.69;;;24.95
37452;BMP280;23314;51.114;6.900;2023-07-31T13:14:03;100481.06;;;24.86
37452;BMP280;23314;51.114;6.900;2023-07-31T13:16:29;100471.09;;;24.70
37452;BMP280;23314;51.114;6.900;2023-07-31T13:18:54;100469.56;;;24.50
37452;BMP280;23314;51.114;6.900;2023-07-31T13:21:19;100480.84;;;24.41
37452;BMP280;23314;51.114;6.900;2023-07-31T13:23:46;100463.97;;;24.42
37452;BMP280;23314;51.114;6.900;2023-07-31T13:26:12;100460.59;;;24.55
37452;BMP280;23314;51.114;6.900;2023-07-31T13:28:37;100447.00;;;24.74
37452;BMP280;23314;51.114;6.900;2023-07-31T13:31:02;100445.59;;;25.05
37452;BMP280;23314;51.114;6.900;2023-07-31T13:33:27;100449.94;;;25.47
37452;BMP280;23314;51.114;6.900;2023-07-31T13:35:53;100437.59;;;25.59
37452;BMP280;23314;51.114;6.900;2023-07-31T13:38:18;100429.13;;;25.89
37452;BMP280;23314;51.114;6.900;2023-07-31T13:40:43;100420.59;;;26.20
37452;BMP280;23314;51.114;6.900;2023-07-31T13:43:09;100424.69;;;26.40
37452;BMP280;23314;51.114;6.900;2023-07-31T13:45:34;100430.75;;;26.59
37452;BMP280;23314;51.114;6.900;2023-07-31T13:48:00;100432.22;;;26.60
37452;BMP280;23314;51.114;6.900;2023-07-31T13:50:25;100433.47;;;26.73
37452;BMP280;23314;51.114;6.900;2023-07-31T13:52:50;100422.78;;;26.82
37452;BMP280;23314;51.114;6.900;2023-07-31T13:55:16;100418.31;;;26.93
37452;BMP280;23314;51.114;6.900;2023-07-31T13:57:41;100428.75;;;26.94
37452;BMP280;23314;51.114;6.900;2023-07-31T14:00:07;100424.34;;;26.91
37452;BMP280;23314;51.114;6.900;2023-07-31T14:02:33;100426.25;;;26.83
37452;BMP280;23314;51.114;6.900;2023-07-31T14:04:58;100434.22;;;26.60
37452;BMP280;23314;51.114;6.900;2023-07-31T14:07:23;100432.69;;;26.38
37452;BMP280;23314;51.114;6.900;2023-07-31T14:09:49;100436.16;;;26.11
37452;BMP280;23314;51.114;6.900;2023-07-31T14:12:14;100439.19;;;25.81
37452;BMP280;23314;51.114;6.900;2023-07-31T14:14:39;100445.03;;;25.58
37452;BMP280;23314;51.114;6.900;2023-07-31T14:17:05;100439.72;;;25.34
37452;BMP280;23314;51.114;6.900;2023-07-31T14:19:30;100429.88;;;25.12
37452;BMP280;23314;51.114;6.900;2023-07-31T14:21:58;100424.16;;;24.96
37452;BMP280;23314;51.114;6.900;2023-07-31T14:24:23;100427.81;;;24.80
37452;BMP280;23314;51.114;6.900;2023-07-31T14:26:49;100418.38;;;24.62
37452;BMP280;23314;51.114;6.900;2023-07-31T14:29:14;100411.47;;;24.42
37452;BMP280;23314;51.114;6.900;2023-07-31T14:31:39;100418.03;;;24.27
37452;BMP280;23314;51.114;6.900;2023-07-31T14:34:05;100421.28;;;24.26
37452;BMP280;23314;51.114;6.900;2023-07-31T14:36:30;100422.47;;;24.30
37452;BMP280;23314;51.114;6.900;2023-07-31T14:38:55;100414.47;;;24.38
37452;BMP280;23314;51.114;6.900;2023-07-31T14:41:20;100415.34;;;24.46
37452;BMP280;23314;51.114;6.900;2023-07-31T14:43:46;100420.06;;;24.65
37452;BMP280;23314;51.114;6.900;2023-07-31T14:46:11;100403.28;;;24.80
37452;BMP280;23314;51.114;6.900;2023-07-31T14:48:36;100397.88;;;24.93
37452;BMP280;23314;51.114;6.900;2023-07-31T14:51:02;100386.06;;;25.04
37452;BMP280;23314;51.114;6.900;2023-07-31T14:53:27;100376.91;;;25.20
37452;BMP280;23314;51.114;6.900;2023-07-31T14:55:52;100383.44;;;25.31
37452;BMP280;23314;51.114;6.900;2023-07-31T14:58:18;100386.59;;;25.35
37452;BMP280;23314;51.114;6.900;2023-07-31T15:00:43;100394.19;;;25.42
37452;BMP280;23314;51.114;6.900;2023-07-31T15:03:09;100393.47;;;25.41
37452;BMP280;23314;51.114;6.900;2023-07-31T15:05:34;100380.09;;;25.38
37452;BMP280;23314;51.114;6.900;2023-07-31T15:08:00;100381.97;;;25.30
37452;BMP280;23314;51.114;6.900;2023-07-31T15:10:25;100374.69;;;25.19
37452;BMP280;23314;51.114;6.900;2023-07-31T15:12:50;100371.19;;;25.05
37452;BMP280;23314;51.114;6.900;2023-07-31T15:15:16;100381.31;;;24.91
37452;BMP280;23314;51.114;6.900;2023-07-31T15:17:41;100373.88;;;24.73
37452;BMP280;23314;51.114;6.900;2023-07-31T15:20:07;100378.72;;;24.61
37452;BMP280;23314;51.114;6.900;2023-07-31T15:22:33;100387.00;;;24.55
37452;BMP280;23314;51.114;6.900;2023-07-31T15:24:58;100384.56;;;24.51
37452;BMP280;23314;51.114;6.900;2023-07-31T15:27:24;100375.94;;;24.47
37452;BMP280;23314;51.114;6.900;2023-07-31T15:29:49;100375.00;;;24.39
37452;BMP280;23314;51.114;6.900;2023-07-31T15:32:16;100372.44;;;24.28
37452;BMP280;23314;51.114;6.900;2023-07-31T15:34:43;100367.09;;;24.16
37452;BMP280;23314;51.114;6.900;2023-07-31T15:37:08;100359.00;;;24.11
37452;BMP280;23314;51.114;6.900;2023-07-31T15:39:33;100347.66;;;24.07
37452;BMP280;23314;51.114;6.900;2023-07-31T15:41:59;100368.03;;;24.00
37452;BMP280;23314;51.114;6.900;2023-07-31T15:44:24;100362.88;;;23.96
37452;BMP280;23314;51.114;6.900;2023-07-31T15:46:50;100358.00;;;23.89
37452;BMP280;23314;51.114;6.900;2023-07-31T15:49:15;100349.94;;;23.78
37452;BMP280;23314;51.114;6.900;2023-07-31T15:51:40;100359.16;;;23.69
37452;BMP280;23314;51.114;6.900;2023-07-31T15:54:05;100353.53;;;23.61
37452;BMP280;23314;51.114;6.900;2023-07-31T15:56:31;100345.16;;;23.59
37452;BMP280;23314;51.114;6.900;2023-07-31T15:58:56;100340.00;;;23.56
37452;BMP280;23314;51.114;6.900;2023-07-31T16:01:23;100337.31;;;23.50
37452;BMP280;23314;51.114;6.900;2023-07-31T16:03:49;100344.25;;;23.45
37452;BMP280;23314;51.114;6.900;2023-07-31T16:06:14;100339.19;;;23.36
37452;BMP280;23314;51.114;6.900;2023-07-31T16:08:40;100340.66;;;23.32
37452;BMP280;23314;51.114;6.900;2023-07-31T16:11:09;100332.81;;;23.22
37452;BMP280;23314;51.114;6.900;2023-07-31T16:13:35;100336.63;;;23.14
37452;BMP280;23314;51.114;6.900;2023-07-31T16:16:00;100330.75;;;23.04
37452;BMP280;23314;51.114;6.900;2023-07-31T16:18:25;100333.25;;;22.96
37452;BMP280;23314;51.114;6.900;2023-07-31T16:20:51;100327.38;;;22.86
37452;BMP280;23314;51.114;6.900;2023-07-31T16:23:16;100323.97;;;22.80
37452;BMP280;23314;51.114;6.900;2023-07-31T16:25:41;100326.72;;;22.74
37452;BMP280;23314;51.114;6.900;2023-07-31T16:28:07;100320.56;;;22.68
37452;BMP280;23314;51.114;6.900;2023-07-31T16:30:32;100317.38;;;22.59
37452;BMP280;23314;51.114;6.900;2023-07-31T16:32:57;100314.97;;;22.49
37452;BMP280;23314;51.114;6.900;2023-07-31T16:35:23;100309.06;;;22.45
37452;BMP280;23314;51.114;6.900;2023-07-31T16:37:48;100309.06;;;22.45
37452;BMP280;23314;51.114;6.900;2023-07-31T16:40:13;100303.13;;;22.41
37452;BMP280;23314;51.114;6.900;2023-07-31T16:42:39;100305.63;;;22.39
37452;BMP280;23314;51.114;6.900;2023-07-31T16:45:05;100300.94;;;22.34
37452;BMP280;23314;51.114;6.900;2023-07-31T16:47:31;100303.44;;;22.32
37452;BMP280;23314;51.114;6.900;2023-07-31T16:49:56;100295.28;;;22.26
37452;BMP280;23314;51.114;6.900;2023-07-31T16:52:21;100288.63;;;22.21
37452;BMP280;23314;51.114;6.900;2023-07-31T16:54:46;100283.25;;;22.16
37452;BMP280;23314;51.114;6.900;2023-07-31T16:57:12;100283.50;;;22.12
37452;BMP280;23314;51.114;6.900;2023-07-31T16:59:37;100279.84;;;22.04
37452;BMP280;23314;51.114;6.900;2023-07-31T17:02:03;100263.53;;;21.98
37452;BMP280;23314;51.114;6.900;2023-07-31T17:04:29;100252.44;;;21.91
37452;BMP280;23314;51.114;6.900;2023-07-31T17:06:56;100254.44;;;21.79
37452;BMP280;23314;51.114;6.900;2023-07-31T17:09:22;100245.59;;;21.67
37452;BMP280;23314;51.114;6.900;2023-07-31T17:11:47;100241.66;;;21.57
37452;BMP280;23314;51.114;6.900;2023-07-31T17:14:12;100233.03;;;21.52
37452;BMP280;23314;51.114;6.900;2023-07-31T17:16:38;100237.47;;;21.50
37452;BMP280;23314;51.114;6.900;2023-07-31T17:19:03;100229.81;;;21.48
37452;BMP280;23314;51.114;6.900;2023-07-31T17:21:28;100221.94;;;21.45
37452;BMP280;23314;51.114;6.900;2023-07-31T17:23:55;100218.75;;;21.41
37452;BMP280;23314;51.114;6.900;2023-07-31T17:26:20;100219.97;;;21.40
37452;BMP280;23314;51.114;6.900;2023-07-31T17:28:46;100218.25;;;21.37
37452;BMP280;23314;51.114;6.900;2023-07-31T17:31:11;100207.66;;;21.33
37452;BMP280;23314;51.114;6.900;2023-07-31T17:33:38;100208.38;;;21.28
37452;BMP280;23314;51.114;6.900;2023-07-31T17:36:04;100211.09;;;21.22
37452;BMP280;23314;51.114;6.900;2023-07-31T17:38:29;100213.31;;;21.18
37452;BMP280;23314;51.114;6.900;2023-07-31T17:40:54;100216.78;;;21.13
37452;BMP280;23314;51.114;6.900;2023-07-31T17:43:20;100211.34;;;21.07
37452;BMP280;23314;51.114;6.900;2023-07-31T17:45:45;100210.59;;;21.01
37452;BMP280;23314;51.114;6.900;2023-07-31T17:48:10;100196.03;;;20.93
37452;BMP280;23314;51.114;6.900;2023-07-31T17:50:36;100195.34;;;20.87
37452;BMP280;23314;51.114;6.900;2023-07-31T17:53:01;100187.16;;;20.81
37452;BMP280;23314;51.114;6.900;2023-07-31T17:55:27;100185.44;;;20.78
37452;BMP280;23314;51.114;6.900;2023-07-31T17:57:52;100184.22;;;20.73